Time;durP1;ratioP1;P1;durP2;ratioP2;P2;SDS_P1;SDS_P2;PMS_P1;PMS_P2;Temp;Humidity;BMP_temperature;BMP_pressure;BME280_temperature;BME280_humidity;BME280_pressure;Samples;Min_cycle;Max_cycle;Signal;HPM_P1;HPM_P2
2024/03/16 00:01:19;;;;;;;0.30;0.20;;;;;;;11.79;100.00;99930.63;5039594;28;20463;-50
2024/03/16 00:03:46;;;;;;;0.30;0.20;;;;;;;11.90;100.00;99927.53;5049246;28;20561;-50
2024/03/16 00:06:12;;;;;;;0.30;0.20;;;;;;;11.93;100.00;99927.41;5047801;28;20509;-50
2024/03/16 00:08:39;;;;;;;0.30;0.20;;;;;;;11.94;100.00;99929.16;5034549;28;20459;-50
2024/03/16 00:11:05;;;;;;;0.30;0.20;;;;;;;11.97;100.00;99934.34;5033831;28;20944;-50
2024/03/16 00:13:32;;;;;;;0.30;0.20;;;;;;;11.86;100.00;99929.44;5043449;28;21063;-50
2024/03/16 00:15:59;;;;;;;0.30;0.20;;;;;;;11.90;100.00;99933.72;5044687;28;20490;-50
2024/03/16 00:18:25;;;;;;;0.30;0.20;;;;;;;11.82;100.00;99934.03;5052217;28;20565;-50
2024/03/16 00:20:52;;;;;;;0.30;0.20;;;;;;;11.84;100.00;99934.84;5042112;28;20510;-50
2024/03/16 00:23:19;;;;;;;0.30;0.20;;;;;;;11.80;100.00;99932.38;5045441;28;20479;-50
2024/03/16 00:25:46;;;;;;;0.30;0.20;;;;;;;11.86;100.00;99934.78;5047733;28;20454;-50
2024/03/16 00:28:12;;;;;;;0.30;0.20;;;;;;;11.72;100.00;99923.75;5032272;28;20483;-50
2024/03/16 00:30:39;;;;;;;0.30;0.20;;;;;;;11.81;100.00;99932.31;5045069;28;20447;-50
2024/03/16 00:33:07;;;;;;;0.30;0.20;;;;;;;11.79;100.00;99933.28;5049026;28;20429;-50
2024/03/16 00:35:33;;;;;;;0.30;0.20;;;;;;;11.81;100.00;99936.75;5041285;28;20466;-50
2024/03/16 00:38:00;;;;;;;0.50;0.50;;;;;;;11.80;100.00;99933.22;5035948;28;20453;-50
2024/03/16 00:40:27;;;;;;;0.30;0.20;;;;;;;11.83;100.00;99932.25;5046024;28;21028;-49
2024/03/16 00:42:53;;;;;;;0.30;0.20;;;;;;;11.85;100.00;99927.72;5032677;28;20491;-50
2024/03/16 00:45:20;;;;;;;0.30;0.20;;;;;;;11.83;100.00;99925.13;5035694;28;20952;-50
2024/03/16 00:47:46;;;;;;;0.30;0.20;;;;;;;11.81;100.00;99921.66;5042727;28;20482;-50
2024/03/16 00:50:14;;;;;;;0.30;0.20;;;;;;;11.67;100.00;99923.94;5048174;28;20551;-50
2024/03/16 00:52:41;;;;;;;0.30;0.20;;;;;;;11.68;100.00;99922.16;5050059;28;20496;-50
2024/03/16 00:55:09;;;;;;;0.30;0.20;;;;;;;11.73;100.00;99918.38;5039533;28;20891;-49
2024/03/16 00:57:35;;;;;;;0.30;0.20;;;;;;;11.78;100.00;99920.84;5049287;28;20455;-50
2024/03/16 01:00:03;;;;;;;0.30;0.20;;;;;;;11.75;100.00;99929.81;5041793;28;20455;-50
2024/03/16 01:02:30;;;;;;;0.30;0.20;;;;;;;11.79;100.00;99926.16;5040731;28;20959;-50
2024/03/16 01:04:56;;;;;;;0.30;0.20;;;;;;;11.83;100.00;99932.25;5041365;28;20464;-50
2024/03/16 01:07:23;;;;;;;0.30;0.20;;;;;;;11.79;100.00;99933.28;5036906;28;20549;-50
2024/03/16 01:09:49;;;;;;;0.30;0.20;;;;;;;11.78;100.00;99937.69;5043367;28;20943;-50
2024/03/16 01:12:16;;;;;;;0.30;0.20;;;;;;;11.76;100.00;99928.03;5038427;28;20459;-50
2024/03/16 01:14:42;;;;;;;0.30;0.20;;;;;;;11.74;100.00;99929.88;5044477;28;20474;-50
2024/03/16 01:17:08;;;;;;;0.30;0.20;;;;;;;11.75;100.00;99923.63;5048141;28;20447;-50
2024/03/16 01:19:36;;;;;;;0.30;0.20;;;;;;;11.79;100.00;99928.84;5044143;28;21006;-50
2024/03/16 01:22:03;;;;;;;9.43;5.87;;;;;;;11.88;100.00;99927.59;5039266;28;20942;-50
2024/03/16 01:24:30;;;;;;;0.30;0.20;;;;;;;11.79;100.00;99925.31;5047190;28;20470;-50
2024/03/16 01:26:57;;;;;;;0.30;0.20;;;;;;;11.87;100.00;99933.84;5044381;28;20573;-50
2024/03/16 01:29:24;;;;;;;0.30;0.20;;;;;;;11.95;100.00;99926.44;5047335;28;20462;-50
2024/03/16 01:31:50;;;;;;;0.30;0.20;;;;;;;11.85;100.00;99938.38;5045447;28;20462;-50
2024/03/16 01:34:17;;;;;;;0.30;0.20;;;;;;;11.74;100.00;99933.41;5041342;28;20557;-53
2024/03/16 01:36:43;;;;;;;0.30;0.20;;;;;;;11.81;100.00;99942.94;5038529;28;20446;-50
2024/03/16 01:39:12;;;;;;;0.30;0.20;;;;;;;11.83;100.00;99941.09;5047789;28;20557;-50
2024/03/16 01:41:40;;;;;;;0.30;0.20;;;;;;;11.82;100.00;99938.50;5044458;28;20466;-50
2024/03/16 01:44:11;;;;;;;0.30;0.20;;;;;;;11.76;100.00;99942.22;5036848;28;20446;-50
2024/03/16 01:46:41;;;;;;;0.30;0.20;;;;;;;11.72;100.00;99940.59;5047964;28;20483;-50
2024/03/16 01:49:08;;;;;;;0.30;0.20;;;;;;;11.67;100.00;99944.38;5037932;28;20452;-50
2024/03/16 01:51:39;;;;;;;0.30;0.20;;;;;;;11.63;100.00;99937.41;5050605;28;20489;-51
2024/03/16 01:54:06;;;;;;;0.30;0.20;;;;;;;11.71;100.00;99940.66;5052697;28;20467;-50
2024/03/16 01:56:34;;;;;;;0.30;0.20;;;;;;;11.58;100.00;99945.59;5031633;28;20459;-50
2024/03/16 01:59:00;;;;;;;0.30;0.20;;;;;;;11.64;100.00;99940.03;5040367;28;20459;-50
2024/03/16 02:01:27;;;;;;;0.30;0.20;;;;;;;11.43;100.00;99941.72;5049585;28;20895;-50
2024/03/16 02:03:57;;;;;;;0.30;0.20;;;;;;;11.49;100.00;99944.13;5052564;28;20489;-50
2024/03/16 02:06:24;;;;;;;0.30;0.20;;;;;;;11.50;100.00;99937.88;5024653;28;20451;-50
2024/03/16 02:08:51;;;;;;;0.30;0.20;;;;;;;11.46;100.00;99932.75;5046879;28;20542;-49
2024/03/16 02:11:19;;;;;;;0.30;0.20;;;;;;;11.52;100.00;99935.19;5034806;28;20548;-50
2024/03/16 02:13:45;;;;;;;0.30;0.20;;;;;;;11.47;100.00;99942.47;5049771;28;20478;-50
2024/03/16 02:16:12;;;;;;;0.30;0.20;;;;;;;11.47;100.00;99942.47;5051592;28;20828;-50
2024/03/16 02:18:38;;;;;;;0.30;0.20;;;;;;;11.51;100.00;99938.75;5050612;28;20455;-50
2024/03/16 02:21:09;;;;;;;0.30;0.20;;;;;;;11.37;100.00;99946.38;5044843;28;20455;-50
2024/03/16 02:23:36;;;;;;;0.30;0.20;;;;;;;11.37;100.00;99941.94;5040437;28;20467;-50
2024/03/16 02:26:04;;;;;;;0.30;0.20;;;;;;;11.31;100.00;99947.50;5043882;28;20455;-49
2024/03/16 02:28:31;;;;;;;0.30;0.20;;;;;;;11.33;100.00;99944.78;5047266;28;20494;-50
2024/03/16 02:30:58;;;;;;;0.30;0.20;;;;;;;11.36;100.00;99955.31;5043936;28;20486;-50
2024/03/16 02:33:27;;;;;;;0.30;0.20;;;;;;;11.35;100.00;99948.25;5050437;28;20893;-50
2024/03/16 02:35:55;;;;;;;0.30;0.20;;;;;;;11.31;100.00;99950.16;5033913;28;20448;-49
2024/03/16 02:38:21;;;;;;;0.30;0.20;;;;;;;11.34;100.00;99950.03;5038355;28;20504;-50
2024/03/16 02:40:47;;;;;;;0.30;0.20;;;;;;;11.32;100.00;99951.91;5040908;28;20574;-50
2024/03/16 02:43:14;;;;;;;0.30;0.20;;;;;;;11.26;100.00;99950.34;5045878;28;21003;-50
2024/03/16 02:45:40;;;;;;;0.30;0.20;;;;;;;11.22;100.00;99951.34;5037441;28;20834;-50
2024/03/16 02:48:07;;;;;;;0.30;0.20;;;;;;;11.19;100.00;99959.47;5051521;28;20841;-50
2024/03/16 02:50:33;;;;;;;0.30;0.20;;;;;;;11.19;100.00;99961.25;5046060;28;20458;-50
2024/03/16 02:53:00;;;;;;;0.30;0.20;;;;;;;11.12;100.00;99965.06;5046752;28;20448;-50
2024/03/16 02:55:27;;;;;;;0.30;0.20;;;;;;;11.11;100.00;99963.34;5019633;28;20468;-50
2024/03/16 02:57:53;;;;;;;0.30;0.20;;;;;;;11.07;100.00;99970.53;5039755;28;20453;-50
2024/03/16 03:00:21;;;;;;;0.30;0.20;;;;;;;11.00;100.00;99961.06;5049067;28;20459;-50
2024/03/16 03:02:48;;;;;;;0.30;0.20;;;;;;;11.09;100.00;99975.78;5034839;28;20509;-50
2024/03/16 03:05:19;;;;;;;0.30;0.20;;;;;;;10.98;100.00;99969.09;5045455;28;20498;-50
2024/03/16 03:07:46;;;;;;;0.30;0.20;;;;;;;10.89;100.00;99972.06;5047220;28;21049;-50
2024/03/16 03:10:12;;;;;;;0.30;0.20;;;;;;;10.71;100.00;99971.84;5050144;28;20508;-50
2024/03/16 03:12:39;;;;;;;0.30;0.20;;;;;;;10.64;100.00;99974.69;5035430;28;20505;-50
2024/03/16 03:15:06;;;;;;;0.30;0.20;;;;;;;10.54;100.00;99978.56;5044205;28;20475;-50
2024/03/16 03:17:33;;;;;;;0.30;0.20;;;;;;;10.48;100.00;99988.56;5026760;28;20481;-50
2024/03/16 03:19:59;;;;;;;0.30;0.20;;;;;;;10.34;100.00;99979.25;5051437;28;20846;-50
2024/03/16 03:22:26;;;;;;;0.30;0.20;;;;;;;10.26;100.00;99980.41;5034645;28;20529;-50
2024/03/16 03:24:53;;;;;;;0.30;0.20;;;;;;;10.29;100.00;99993.59;5027451;28;20482;-50
2024/03/16 03:27:20;;;;;;;0.30;0.20;;;;;;;10.08;100.00;99987.16;5031696;28;20516;-50
2024/03/16 03:29:47;;;;;;;0.30;0.20;;;;;;;9.98;100.00;99994.50;5052750;28;20564;-49
2024/03/16 03:32:14;;;;;;;0.30;0.20;;;;;;;10.06;100.00;99992.50;5040050;28;20513;-50
2024/03/16 03:34:40;;;;;;;0.30;0.20;;;;;;;9.91;100.00;99995.63;5041810;28;20511;-49
2024/03/16 03:37:07;;;;;;;0.30;0.20;;;;;;;9.84;100.00;99995.84;5037284;28;20446;-50
2024/03/16 03:39:34;;;;;;;0.30;0.20;;;;;;;9.90;100.00;99988.59;5036117;28;20543;-53
2024/03/16 03:42:01;;;;;;;0.30;0.20;;;;;;;9.86;100.00;100008.16;5045005;28;21046;-49
2024/03/16 03:44:36;;;;;;;0.30;0.20;;;;;;;9.99;100.00;100006.88;5037831;28;20475;-49
2024/03/16 03:47:03;;;;;;;0.30;0.20;;;;;;;10.08;100.00;100009.25;5030411;28;20486;-49
2024/03/16 03:49:32;;;;;;;0.30;0.20;;;;;;;10.12;100.00;100004.72;5029135;28;20440;-49
2024/03/16 03:51:59;;;;;;;0.30;0.20;;;;;;;10.17;100.00;100012.56;5034925;28;20513;-49
2024/03/16 03:54:31;;;;;;;0.30;0.20;;;;;;;10.23;100.00;100015.91;5044845;28;20523;-49
2024/03/16 03:56:58;;;;;;;0.30;0.20;;;;;;;10.18;100.00;100014.28;5033984;28;20459;-49
2024/03/16 03:59:24;;;;;;;0.30;0.20;;;;;;;10.25;100.00;100015.84;5052032;28;20880;-49
2024/03/16 04:01:51;;;;;;;0.30;0.20;;;;;;;10.19;100.00;100011.59;5042760;28;20454;-49
2024/03/16 04:04:18;;;;;;;0.30;0.20;;;;;;;10.18;100.00;100009.84;5050079;28;20475;-49
2024/03/16 04:06:45;;;;;;;0.30;0.20;;;;;;;10.14;100.00;100020.59;5052095;28;20497;-49
2024/03/16 04:09:12;;;;;;;0.30;0.20;;;;;;;10.27;100.00;100020.19;5042790;28;20491;-49
2024/03/16 04:11:41;;;;;;;0.30;0.20;;;;;;;10.26;100.00;100030.88;5041562;28;20436;-49
2024/03/16 04:14:08;;;;;;;0.30;0.20;;;;;;;10.31;100.00;100034.28;5050985;28;20539;-50
2024/03/16 04:16:34;;;;;;;0.30;0.20;;;;;;;10.29;100.00;100030.81;5052019;28;20825;-49
2024/03/16 04:19:01;;;;;;;0.30;0.20;;;;;;;10.22;100.00;100035.41;5051988;28;20446;-50
2024/03/16 04:21:27;;;;;;;0.30;0.20;;;;;;;10.15;100.00;100032.97;5046649;28;20450;-49
2024/03/16 04:23:54;;;;;;;0.30;0.20;;;;;;;10.22;100.00;100046.03;5051931;28;20467;-49
2024/03/16 04:26:20;;;;;;;0.30;0.20;;;;;;;10.25;100.00;100047.72;5047811;28;20448;-50
2024/03/16 04:28:47;;;;;;;0.30;0.20;;;;;;;10.26;100.00;100039.72;5050286;28;20493;-50
2024/03/16 04:31:13;;;;;;;0.30;0.20;;;;;;;10.38;100.00;100038.47;5052151;28;20451;-49
2024/03/16 04:33:40;;;;;;;0.30;0.20;;;;;;;10.42;100.00;100041.91;5026069;28;20944;-49
2024/03/16 04:36:08;;;;;;;0.30;0.20;;;;;;;10.42;100.00;100031.28;5031857;28;20469;-50
2024/03/16 04:38:35;;;;;;;0.30;0.20;;;;;;;10.36;100.00;100037.63;5044443;28;21034;-49
2024/03/16 04:41:02;;;;;;;0.30;0.20;;;;;;;10.42;100.00;100039.25;5043285;28;20534;-49
2024/03/16 04:43:28;;;;;;;0.30;0.20;;;;;;;10.29;100.00;100033.47;5051637;28;20477;-49
2024/03/16 04:45:55;;;;;;;0.30;0.20;;;;;;;10.28;100.00;100034.34;5051941;28;20457;-49
2024/03/16 04:48:21;;;;;;;0.30;0.20;;;;;;;10.30;100.00;100036.06;5036208;28;20518;-49
2024/03/16 04:50:48;;;;;;;0.30;0.20;;;;;;;10.37;100.00;100036.72;5040377;28;20462;-48
2024/03/16 04:53:15;;;;;;;0.30;0.20;;;;;;;10.29;100.00;100033.47;5051936;28;20498;-49
2024/03/16 04:55:41;;;;;;;0.30;0.20;;;;;;;10.26;100.00;100031.75;5039743;28;20451;-49
2024/03/16 04:58:08;;;;;;;0.30;0.20;;;;;;;10.22;100.00;100042.53;5047429;28;20530;-49
2024/03/16 05:00:35;;;;;;;0.30;0.20;;;;;;;10.10;100.00;100043.72;5054036;28;20516;-49
2024/03/16 05:03:02;;;;;;;0.30;0.20;;;;;;;9.96;100.00;100051.25;5052205;28;20470;-50
2024/03/16 05:05:29;;;;;;;0.30;0.20;;;;;;;10.10;100.00;100055.22;5043309;28;20454;-48
2024/03/16 05:07:55;;;;;;;0.30;0.20;;;;;;;10.26;100.00;100046.81;5045430;28;20898;-47
2024/03/16 05:10:22;;;;;;;0.30;0.20;;;;;;;10.29;100.00;100050.25;5037473;28;20448;-47
2024/03/16 05:12:49;;;;;;;0.30;0.20;;;;;;;10.27;100.00;100053.84;5043375;28;20450;-47
2024/03/16 05:15:15;;;;;;;0.30;0.20;;;;;;;10.44;100.00;100045.38;5043812;28;20460;-47
2024/03/16 05:17:42;;;;;;;0.30;0.20;;;;;;;10.45;100.00;100049.78;5043679;28;20451;-47
2024/03/16 05:20:09;;;;;;;0.30;0.20;;;;;;;10.53;100.00;100058.34;5043834;28;20455;-47
2024/03/16 05:22:36;;;;;;;0.30;0.20;;;;;;;10.56;100.00;100061.81;5046769;28;20461;-48
2024/03/16 05:25:03;;;;;;;0.30;0.20;;;;;;;10.60;100.00;100063.44;5051110;28;20471;-46
2024/03/16 05:27:30;;;;;;;0.30;0.20;;;;;;;10.55;100.00;100061.81;5054098;28;20482;-47
2024/03/16 05:29:56;;;;;;;0.30;0.20;;;;;;;10.52;100.00;100061.94;5051958;28;20426;-48
2024/03/16 05:32:23;;;;;;;0.30;0.20;;;;;;;10.56;100.00;100068.91;5043703;28;20545;-48
2024/03/16 05:34:50;;;;;;;0.30;0.20;;;;;;;10.65;100.00;100065.94;5038528;28;20577;-46
2024/03/16 05:37:17;;;;;;;0.30;0.20;;;;;;;10.70;100.00;100064.00;5035814;28;20462;-46
2024/03/16 05:39:44;;;;;;;0.30;0.20;;;;;;;10.84;100.00;100072.41;5041199;28;20450;-47
2024/03/16 05:42:11;;;;;;;0.30;0.20;;;;;;;10.84;100.00;100069.75;5048309;28;20959;-47
2024/03/16 05:44:37;;;;;;;0.30;0.20;;;;;;;10.90;100.00;100073.97;5051914;28;20497;-48
2024/03/16 05:47:04;;;;;;;0.40;0.30;;;;;;;10.95;100.00;100078.22;5054803;28;20453;-47
2024/03/16 05:49:30;;;;;;;0.30;0.20;;;;;;;10.97;100.00;100073.75;5054598;28;20497;-47
2024/03/16 05:51:57;;;;;;;0.30;0.20;;;;;;;11.02;100.00;100073.56;5052401;28;20454;-46
2024/03/16 05:54:23;;;;;;;0.30;0.20;;;;;;;11.04;100.00;100074.38;5045602;28;21051;-47
2024/03/16 05:56:50;;;;;;;0.30;0.20;;;;;;;11.07;100.00;100079.59;5051277;28;20477;-48
2024/03/16 05:59:16;;;;;;;0.30;0.20;;;;;;;10.98;100.00;100079.94;5041494;28;20544;-47
2024/03/16 06:01:43;;;;;;;0.30;0.20;;;;;;;10.97;100.00;100087.03;5043724;28;20530;-47
2024/03/16 06:04:09;;;;;;;0.30;0.20;;;;;;;10.97;100.00;100091.47;5038850;28;20522;-47
2024/03/16 06:06:36;;;;;;;0.30;0.20;;;;;;;10.94;100.00;100097.75;5047986;28;20459;-47
2024/03/16 06:09:02;;;;;;;0.30;0.20;;;;;;;10.97;100.00;100099.47;5048787;28;20491;-47
2024/03/16 06:11:34;;;;;;;0.30;0.20;;;;;;;11.03;100.00;100103.69;5034949;28;20486;-47
2024/03/16 06:14:01;;;;;;;0.30;0.20;;;;;;;11.07;100.00;100111.50;5051892;28;20470;-47
2024/03/16 06:16:28;;;;;;;0.30;0.20;;;;;;;11.07;100.00;100116.81;5048445;28;20451;-48
2024/03/16 06:18:54;;;;;;;0.30;0.20;;;;;;;11.09;100.00;100112.31;5040918;28;20486;-47
2024/03/16 06:21:21;;;;;;;0.30;0.20;;;;;;;11.09;100.00;100122.09;5039653;28;20829;-47
2024/03/16 06:23:48;;;;;;;0.30;0.20;;;;;;;11.18;100.00;100129.78;5051408;28;20502;-47
2024/03/16 06:26:18;;;;;;;0.30;0.20;;;;;;;11.30;100.00;100133.81;5034718;28;20893;-47
2024/03/16 06:28:56;;;;;;;0.30;0.20;;;;;;;11.38;100.00;100130.00;5022580;28;20842;-47
2024/03/16 06:31:31;;;;;;;0.30;0.20;;;;;;;11.35;100.00;100131.84;5047014;28;20459;-48
2024/03/16 06:34:09;;;;;;;0.30;0.20;;;;;;;11.44;100.00;100136.88;5041757;28;20541;-49
2024/03/16 06:36:41;;;;;;;0.30;0.20;;;;;;;11.51;100.00;100147.28;5035865;28;20843;-51
2024/03/16 06:39:10;;;;;;;0.30;0.20;;;;;;;11.55;100.00;100142.69;5034819;28;20448;-51
2024/03/16 06:41:38;;;;;;;0.30;0.20;;;;;;;11.53;100.00;100147.22;5042158;28;20504;-52
2024/03/16 06:44:04;;;;;;;0.30;0.20;;;;;;;11.60;100.00;100145.19;5049957;28;20540;-51
2024/03/16 06:46:33;;;;;;;0.30;0.20;;;;;;;11.67;100.00;100155.59;5051525;28;20451;-51
2024/03/16 06:49:05;;;;;;;0.30;0.20;;;;;;;11.63;100.00;100151.28;5045254;28;20482;-52
2024/03/16 06:51:32;;;;;;;0.30;0.20;;;;;;;11.67;100.00;100160.03;5053663;28;20417;-51
2024/03/16 06:54:00;;;;;;;0.30;0.20;;;;;;;11.70;100.00;100167.91;5036037;28;20445;-52
2024/03/16 06:56:26;;;;;;;0.30;0.20;;;;;;;11.76;100.00;100165.03;5053488;28;20454;-51
2024/03/16 06:58:53;;;;;;;0.30;0.20;;;;;;;11.83;100.00;100169.25;5050091;28;20532;-51
2024/03/16 07:01:20;;;;;;;0.30;0.20;;;;;;;11.95;100.00;100174.16;5052589;28;20475;-51
2024/03/16 07:03:47;;;;;;;0.30;0.20;;;;;;;12.17;100.00;100179.53;5053104;28;20553;-51
2024/03/16 07:06:14;;;;;;;0.30;0.20;;;;;;;12.09;100.00;100182.50;5026914;28;20863;-51
2024/03/16 07:08:40;;;;;;;0.30;0.20;;;;;;;11.98;100.00;100182.03;5037951;28;20579;-51
2024/03/16 07:11:07;;;;;;;0.30;0.20;;;;;;;12.14;100.00;100190.31;5034401;28;20546;-53
2024/03/16 07:13:35;;;;;;;0.30;0.20;;;;;;;12.11;100.00;100185.97;5040893;28;20515;-50
2024/03/16 07:16:02;;;;;;;0.30;0.20;;;;;;;12.39;100.00;100187.63;5032585;28;20471;-51
2024/03/16 07:18:28;;;;;;;0.30;0.20;;;;;;;12.32;100.00;100199.44;5051874;28;20472;-51
2024/03/16 07:20:58;;;;;;;0.30;0.20;;;;;;;12.31;100.00;100203.03;5042969;28;20455;-51
2024/03/16 07:23:25;;;;;;;0.30;0.20;;;;;;;12.43;100.00;100203.44;5052869;28;20554;-52
2024/03/16 07:25:52;;;;;;;0.30;0.20;;;;;;;12.42;100.00;100204.38;5043790;28;20454;-51
2024/03/16 07:28:18;;;;;;;0.30;0.20;;;;;;;12.47;100.00;100204.19;5043941;28;20490;-51
2024/03/16 07:30:45;;;;;;;0.30;0.20;;;;;;;12.43;100.00;100216.75;5045715;28;20530;-51
2024/03/16 07:33:13;;;;;;;0.30;0.20;;;;;;;12.56;100.00;100225.16;5034903;28;20530;-51
2024/03/16 07:35:40;;;;;;;0.30;0.20;;;;;;;12.58;100.00;100225.13;5015893;28;20456;-51
2024/03/16 07:38:06;;;;;;;0.30;0.20;;;;;;;12.85;100.00;100223.19;5036093;28;20494;-51
2024/03/16 07:40:33;;;;;;;0.30;0.20;;;;;;;12.96;100.00;100223.63;5039883;28;20436;-51
2024/03/16 07:43:01;;;;;;;0.30;0.20;;;;;;;13.04;100.00;100216.22;5047383;28;20988;-50
2024/03/16 07:45:27;;;;;;;0.30;0.20;;;;;;;13.17;100.00;100222.81;5052106;28;20462;-50
2024/03/16 07:47:54;;;;;;;0.30;0.20;;;;;;;13.20;100.00;100230.72;5052758;28;20530;-50
2024/03/16 07:50:20;;;;;;;0.30;0.20;;;;;;;13.12;100.00;100219.44;5045099;28;20462;-51
2024/03/16 07:52:47;;;;;;;0.30;0.20;;;;;;;13.14;100.00;100222.03;5052203;28;20951;-50
2024/03/16 07:55:13;;;;;;;0.30;0.20;;;;;;;13.16;100.00;100230.88;5052258;28;20481;-51
2024/03/16 07:57:40;;;;;;;0.30;0.20;;;;;;;13.13;100.00;100234.50;5038709;28;20626;-51
2024/03/16 08:00:10;;;;;;;0.30;0.20;;;;;;;13.24;100.00;100250.13;5052292;28;20539;-50
2024/03/16 08:02:37;;;;;;;0.30;0.20;;;;;;;13.37;100.00;100259.38;5052249;28;20543;-51
2024/03/16 08:05:04;;;;;;;0.30;0.20;;;;;;;13.41;100.00;100254.78;5048924;28;21047;-50
2024/03/16 08:07:30;;;;;;;0.30;0.20;;;;;;;13.38;100.00;100258.44;5049512;28;20489;-51
2024/03/16 08:09:57;;;;;;;0.30;0.20;;;;;;;13.32;100.00;100259.59;5045005;28;20486;-51
2024/03/16 08:12:23;;;;;;;0.30;0.20;;;;;;;13.32;100.00;100264.06;5039029;28;20497;-51
2024/03/16 08:14:50;;;;;;;0.30;0.20;;;;;;;13.42;100.00;100269.88;5041624;28;20475;-51
2024/03/16 08:17:16;;;;;;;0.30;0.20;;;;;;;13.49;100.00;100276.72;5049012;28;20950;-50
2024/03/16 08:19:43;;;;;;;0.30;0.20;;;;;;;13.35;100.00;100269.25;5052169;28;20541;-50
2024/03/16 08:22:09;;;;;;;0.30;0.20;;;;;;;13.26;100.00;100272.28;5039921;28;20481;-50
2024/03/16 08:24:36;;;;;;;0.30;0.20;;;;;;;13.24;100.00;100275.03;5052169;28;20449;-50
2024/03/16 08:27:02;;;;;;;0.30;0.20;;;;;;;13.38;100.00;100279.81;5041674;28;20421;-50
2024/03/16 08:29:29;;;;;;;0.30;0.20;;;;;;;13.47;100.00;100273.25;5054172;28;20564;-50
2024/03/16 08:31:55;;;;;;;0.30;0.20;;;;;;;13.63;100.00;100285.03;5056446;28;20530;-50
2024/03/16 08:34:22;;;;;;;0.30;0.20;;;;;;;13.71;100.00;100288.25;5048390;28;20950;-50
2024/03/16 08:36:49;;;;;;;0.30;0.20;;;;;;;13.85;99.09;100296.56;5040633;28;20421;-51
2024/03/16 08:39:15;;;;;;;0.30;0.20;;;;;;;13.84;98.93;100289.50;5055867;28;20797;-51
2024/03/16 08:41:42;;;;;;;0.30;0.20;;;;;;;13.93;99.21;100288.22;5049312;28;21013;-50
2024/03/16 08:44:08;;;;;;;0.30;0.20;;;;;;;13.81;98.43;100291.41;5048603;28;20561;-48
2024/03/16 08:46:35;;;;;;;0.30;0.20;;;;;;;13.80;98.97;100293.22;5055982;28;20975;-48
2024/03/16 08:49:01;;;;;;;0.30;0.20;;;;;;;13.79;98.52;100306.63;5055746;28;20995;-47
2024/03/16 08:51:28;;;;;;;0.30;0.30;;;;;;;13.82;98.90;100299.34;5052821;28;20455;-45
2024/03/16 08:53:54;;;;;;;0.30;0.20;;;;;;;13.88;97.51;100301.78;5042500;28;20475;-47
2024/03/16 08:56:21;;;;;;;0.30;0.20;;;;;;;13.90;96.91;100302.59;5054515;28;20546;-48
2024/03/16 08:58:48;;;;;;;0.30;0.20;;;;;;;13.87;97.53;100313.41;5055899;28;20837;-47
2024/03/16 09:01:14;;;;;;;0.30;0.20;;;;;;;13.93;97.23;100309.59;5048042;28;20462;-47
2024/03/16 09:03:41;;;;;;;0.30;0.20;;;;;;;13.92;96.20;100315.88;5052723;28;20596;-47
2024/03/16 09:06:08;;;;;;;0.30;0.20;;;;;;;13.84;95.61;100316.22;5049403;28;20800;-47
2024/03/16 09:08:36;;;;;;;0.30;0.20;;;;;;;14.03;95.97;100320.78;5047856;28;21006;-48
2024/03/16 09:11:04;;;;;;;0.30;0.20;;;;;;;14.08;96.39;100313.41;5048221;28;20426;-47
2024/03/16 09:13:33;;;;;;;0.30;0.20;;;;;;;14.14;96.31;100311.38;5048447;28;20459;-48
2024/03/16 09:16:01;;;;;;;0.30;0.20;;;;;;;14.10;96.44;100317.75;5055332;28;20465;-48
2024/03/16 09:18:27;;;;;;;0.30;0.20;;;;;;;14.20;95.04;100313.78;5055361;28;20533;-50
2024/03/16 09:20:54;;;;;;;0.30;0.20;;;;;;;13.95;94.95;100323.75;5055321;28;20453;-47
2024/03/16 09:23:20;;;;;;;0.30;0.20;;;;;;;14.15;95.45;100328.28;5055101;28;20498;-49
2024/03/16 09:25:53;;;;;;;0.30;0.20;;;;;;;14.04;95.29;100327.84;5048235;28;20484;-47
2024/03/16 09:28:21;;;;;;;0.30;0.20;;;;;;;14.00;95.32;100328.94;5042541;28;20471;-48
2024/03/16 09:30:48;;;;;;;0.30;0.20;;;;;;;13.96;96.10;100335.31;5055327;28;20461;-47
2024/03/16 09:33:16;;;;;;;0.30;0.20;;;;;;;14.00;96.06;100324.47;5035298;28;20575;-47
2024/03/16 09:35:43;;;;;;;0.30;0.20;;;;;;;14.02;95.05;100329.72;5017951;28;20463;-47
2024/03/16 09:38:10;;;;;;;0.30;0.20;;;;;;;14.21;95.18;100334.22;5048612;28;20486;-47
2024/03/16 09:40:42;;;;;;;0.30;0.20;;;;;;;14.41;94.32;100345.88;5037219;28;20534;-48
2024/03/16 09:43:10;;;;;;;0.30;0.20;;;;;;;14.65;93.76;100338.59;5037107;28;20462;-48
2024/03/16 09:45:35;;;;;;;0.30;0.20;;;;;;;14.69;92.70;100348.25;5019988;28;20941;-48
2024/03/16 09:48:02;;;;;;;0.30;0.20;;;;;;;14.79;91.69;100345.06;5026876;28;20436;-48
2024/03/16 09:50:30;;;;;;;0.30;0.20;;;;;;;14.62;90.32;100358.34;5036884;28;20235;-49
2024/03/16 09:52:58;;;;;;;0.30;0.20;;;;;;;14.59;92.98;100362.97;5032594;28;20430;-48
2024/03/16 09:55:25;;;;;;;0.30;0.20;;;;;;;14.18;96.81;100365.56;5026357;28;20434;-48
2024/03/16 09:57:54;;;;;;;0.30;0.20;;;;;;;13.75;100.00;100374.50;5020846;28;20878;-48
2024/03/16 10:00:21;;;;;;;0.30;0.20;;;;;;;13.70;100.00;100382.66;5027874;28;20764;-49
2024/03/16 10:02:48;;;;;;;0.30;0.20;;;;;;;13.56;100.00;100382.34;5034632;28;20918;-48
2024/03/16 10:05:16;;;;;;;0.30;0.20;;;;;;;13.55;100.00;100381.47;5029104;28;20761;-48
2024/03/16 10:07:44;;;;;;;0.30;0.20;;;;;;;13.68;100.00;100392.56;5034115;28;20470;-48
2024/03/16 10:10:15;;;;;;;0.30;0.20;;;;;;;13.77;100.00;100380.63;5025113;28;20492;-48
2024/03/16 10:12:41;;;;;;;0.30;0.20;;;;;;;13.97;100.00;100374.47;5023009;28;20455;-48
2024/03/16 10:15:15;;;;;;;0.30;0.20;;;;;;;14.08;100.00;100382.91;5030064;28;20551;-48
2024/03/16 10:17:44;;;;;;;0.30;0.20;;;;;;;14.28;100.00;100384.78;5026151;28;20562;-49
2024/03/16 10:20:16;;;;;;;0.30;0.20;;;;;;;14.40;100.00;100378.91;5025109;28;20430;-48
2024/03/16 10:22:43;;;;;;;0.30;0.20;;;;;;;14.61;100.00;100386.03;5026473;28;20462;-47
2024/03/16 10:25:09;;;;;;;0.30;0.20;;;;;;;14.70;100.00;100390.97;5013661;28;20483;-48
2024/03/16 10:27:39;;;;;;;0.30;0.20;;;;;;;14.78;100.00;100410.22;5029285;28;20460;-46
2024/03/16 10:30:11;;;;;;;0.30;0.20;;;;;;;13.56;97.54;100443.78;5031979;28;20491;-47
2024/03/16 10:32:43;;;;;;;0.30;0.20;;;;;;;12.53;98.38;100438.59;5016100;28;20987;-47
2024/03/16 10:35:14;;;;;;;0.30;0.20;;;;;;;12.35;99.10;100458.78;5018481;28;20454;-48
2024/03/16 10:37:43;;;;;;;0.30;0.20;;;;;;;11.83;100.00;100449.78;5027797;28;20463;-47
2024/03/16 10:40:16;;;;;;;0.30;0.20;;;;;;;11.61;100.00;100467.28;5030501;28;20940;-49
2024/03/16 10:42:47;;;;;;;0.30;0.20;;;;;;;11.62;100.00;100477.00;5018136;28;20467;-49
2024/03/16 10:45:16;;;;;;;0.30;0.20;;;;;;;11.33;100.00;100477.88;5019443;28;20487;-47
2024/03/16 10:47:50;;;;;;;0.30;0.20;;;;;;;11.12;100.00;100490.00;5035013;28;20463;-48
2024/03/16 10:50:19;;;;;;;0.30;0.20;;;;;;;11.17;100.00;100489.88;5025164;28;20497;-48
2024/03/16 10:52:48;;;;;;;0.30;0.20;;;;;;;11.28;100.00;100496.63;5004427;28;20953;-47
2024/03/16 10:55:22;;;;;;;0.30;0.20;;;;;;;11.16;100.00;100496.09;5021082;28;20482;-47
2024/03/16 10:57:51;;;;;;;0.30;0.20;;;;;;;11.28;100.00;100496.63;5026285;28;20452;-47
2024/03/16 11:00:23;;;;;;;0.30;0.20;;;;;;;11.40;100.00;100503.41;5028052;28;20465;-48
2024/03/16 11:03:07;;;;;;;0.30;0.20;;;;;;;11.77;100.00;100508.50;5036016;28;20552;-48
2024/03/16 11:05:37;;;;;;;0.30;0.20;;;;;;;11.96;100.00;100506.22;5048011;23;20506;-51
2024/03/16 11:08:21;;;;;;;0.30;0.20;;;;;;;12.04;100.00;100505.94;5024685;28;20454;-51
2024/03/16 11:10:52;;;;;;;0.30;0.20;;;;;;;12.16;100.00;100497.59;5025122;28;20490;-51
2024/03/16 11:13:21;;;;;;;0.30;0.20;;;;;;;12.20;100.00;100509.00;5035521;28;20462;-51
2024/03/16 11:15:48;;;;;;;0.30;0.20;;;;;;;12.65;100.00;100496.84;5005794;28;20460;-51
2024/03/16 11:18:20;;;;;;;0.30;0.20;;;;;;;12.54;100.00;100503.47;5007956;28;20519;-51
2024/03/16 11:20:53;;;;;;;0.30;0.20;;;;;;;12.75;100.00;100505.44;5009170;28;20811;-51
2024/03/16 11:23:23;;;;;;;0.30;0.20;;;;;;;12.75;100.00;100500.09;5005977;28;20456;-51